Time;durP1;ratioP1;P1;durP2;ratioP2;P2;SDS_P1;SDS_P2;PMS_P1;PMS_P2;Temp;Humidity;BMP_temperature;BMP_pressure;BME280_temperature;BME280_humidity;BME280_pressure;Samples;Min_cycle;Max_cycle;Signal;HPM_P1;HPM_P2
2021/12/26 00:01:30;;;;;;;0.30;0.30;;;;;;;;;;5043629;28;20286;-84
2021/12/26 00:03:56;;;;;;;0.20;0.20;;;;;;;;;;5034877;28;20036;-83
2021/12/26 00:06:28;;;;;;;0.20;0.20;;;;;;;;;;5042059;28;20059;-84
2021/12/26 00:08:58;;;;;;;0.20;0.20;;;;;;;;;;5038021;28;20693;-83
2021/12/26 00:11:24;;;;;;;0.20;0.20;;;;;;;;;;5037799;28;20041;-83
2021/12/26 00:13:53;;;;;;;0.30;0.30;;;;;;;;;;5041361;28;20377;-83
2021/12/26 00:16:19;;;;;;;0.30;0.30;;;;;;;;;;5039699;28;20040;-83
2021/12/26 00:18:46;;;;;;;0.20;0.20;;;;;;;;;;5041215;28;20029;-83
2021/12/26 00:21:17;;;;;;;0.20;0.20;;;;;;;;;;5042156;28;20284;-83
2021/12/26 00:23:43;;;;;;;0.20;0.20;;;;;;;;;;5038653;28;20044;-83
2021/12/26 00:26:09;;;;;;;0.20;0.20;;;;;;;;;;5027262;28;20555;-83
2021/12/26 00:28:36;;;;;;;0.20;0.20;;;;;;;;;;5042103;28;20021;-83
2021/12/26 00:31:02;;;;;;;0.20;0.20;;;;;;;;;;5039969;28;20571;-83
2021/12/26 00:33:28;;;;;;;0.20;0.20;;;;;;;;;;5041059;28;20052;-84
2021/12/26 00:35:54;;;;;;;0.20;0.20;;;;;;;;;;5038270;28;20840;-83
2021/12/26 00:38:21;;;;;;;0.20;0.20;;;;;;;;;;5040575;28;20029;-84
2021/12/26 00:40:47;;;;;;;0.20;0.20;;;;;;;;;;5042363;28;20032;-84
2021/12/26 00:43:13;;;;;;;0.20;0.20;;;;;;;;;;5041221;28;20090;-83
2021/12/26 00:45:40;;;;;;;0.30;0.30;;;;;;;;;;5040758;28;20291;-84
2021/12/26 00:48:07;;;;;;;0.20;0.20;;;;;;;;;;5039701;28;20036;-83
2021/12/26 00:50:33;;;;;;;0.25;0.25;;;;;;;;;;5040844;28;20715;-84
2021/12/26 00:53:00;;;;;;;0.40;0.40;;;;;;;;;;5038635;28;20091;-84
2021/12/26 00:55:27;;;;;;;0.20;0.20;;;;;;;;;;5038973;28;20031;-84
2021/12/26 00:57:53;;;;;;;0.20;0.20;;;;;;;;;;5034027;28;20038;-84
2021/12/26 01:00:24;;;;;;;0.30;0.30;;;;;;;;;;5033568;28;20033;-84
2021/12/26 01:02:50;;;;;;;0.20;0.20;;;;;;;;;;5040268;28;20033;-84
2021/12/26 01:05:17;;;;;;;0.30;0.30;;;;;;;;;;5039384;28;21191;-83
2021/12/26 01:08:03;;;;;;;0.20;0.20;;;;;;;;;;5041176;28;20082;-84
2021/12/26 01:10:35;;;;;;;0.30;0.30;;;;;;;;;;5042513;28;20033;-86
2021/12/26 01:13:11;;;;;;;0.30;0.30;;;;;;;;;;5024570;28;20040;-87
2021/12/26 01:15:37;;;;;;;0.30;0.30;;;;;;;;;;5034202;28;20060;-87
2021/12/26 01:18:03;;;;;;;0.30;0.30;;;;;;;;;;5039371;28;20043;-85
2021/12/26 01:23:10;;;;;;;0.20;0.20;;;;;;;;;;5040109;28;20037;-85
2021/12/26 01:25:36;;;;;;;0.30;0.30;;;;;;;;;;5040446;28;20059;-85
2021/12/26 01:28:03;;;;;;;0.20;0.20;;;;;;;;;;5039341;28;20028;-84
2021/12/26 01:30:29;;;;;;;;;;;;;;;;;;5041675;28;20110;-85
2021/12/26 01:32:55;;;;;;;0.20;0.20;;;;;;;;;;5041030;28;20441;-85
2021/12/26 01:35:21;;;;;;;0.20;0.20;;;;;;;;;;5042815;28;20029;-85
2021/12/26 01:37:47;;;;;;;0.20;0.20;;;;;;;;;;5042057;28;20033;-86
2021/12/26 01:40:15;;;;;;;0.20;0.20;;;;;;;;;;5038296;28;20021;-85
2021/12/26 01:42:41;;;;;;;0.30;0.30;;;;;;;;;;5039488;28;20021;-85
2021/12/26 01:45:07;;;;;;;0.20;0.20;;;;;;;;;;5038739;28;20053;-85
2021/12/26 01:47:34;;;;;;;0.22;0.22;;;;;;;;;;5027583;28;20033;-86
2021/12/26 01:50:00;;;;;;;0.25;0.25;;;;;;;;;;5041977;28;20033;-85
2021/12/26 01:52:26;;;;;;;0.20;0.20;;;;;;;;;;5021139;28;20044;-84
2021/12/26 01:55:01;;;;;;;0.25;0.25;;;;;;;;;;5042360;28;20029;-85
2021/12/26 01:57:27;;;;;;;0.20;0.20;;;;;;;;;;5033721;28;20033;-84
2021/12/26 01:59:53;;;;;;;0.20;0.20;;;;;;;;;;5042032;28;20044;-85
2021/12/26 02:02:21;;;;;;;0.20;0.20;;;;;;;;;;5042322;28;20403;-85
2021/12/26 02:04:47;;;;;;;0.20;0.20;;;;;;;;;;5033797;28;20040;-84
2021/12/26 02:07:14;;;;;;;0.20;0.20;;;;;;;;;;5041651;28;20036;-85
2021/12/26 02:09:40;;;;;;;0.20;0.20;;;;;;;;;;5033584;28;20033;-85
2021/12/26 02:12:08;;;;;;;0.30;0.30;;;;;;;;;;5033506;28;20295;-84
2021/12/26 02:14:34;;;;;;;0.20;0.20;;;;;;;;;;5034745;28;20036;-85
2021/12/26 02:17:00;;;;;;;0.30;0.30;;;;;;;;;;5028473;28;20028;-85
2021/12/26 02:19:26;;;;;;;0.20;0.20;;;;;;;;;;5039323;28;20447;-85
2021/12/26 02:24:31;;;;;;;0.20;0.20;;;;;;;;;;5039114;28;20060;-86
2021/12/26 02:29:43;;;;;;;0.20;0.20;;;;;;;;;;5032006;28;20044;-85
2021/12/26 02:32:09;;;;;;;0.20;0.20;;;;;;;;;;5039481;28;20283;-85
2021/12/26 02:34:35;;;;;;;0.20;0.20;;;;;;;;;;5042603;28;20039;-82
2021/12/26 02:37:01;;;;;;;0.20;0.20;;;;;;;;;;5044720;28;20033;-83
2021/12/26 02:39:27;;;;;;;0.25;0.25;;;;;;;;;;5044602;28;20025;-83
2021/12/26 02:41:53;;;;;;;0.20;0.20;;;;;;;;;;5042288;28;20033;-83
2021/12/26 02:44:19;;;;;;;0.30;0.30;;;;;;;;;;5038472;28;20052;-85
2021/12/26 02:46:45;;;;;;;0.20;0.20;;;;;;;;;;5038770;28;20029;-85
2021/12/26 02:49:11;;;;;;;0.20;0.20;;;;;;;;;;5026449;28;20397;-85
2021/12/26 02:51:37;;;;;;;0.20;0.20;;;;;;;;;;5038169;28;20069;-86
2021/12/26 02:54:04;;;;;;;0.20;0.20;;;;;;;;;;5025379;28;20052;-84
2021/12/26 02:56:30;;;;;;;0.20;0.20;;;;;;;;;;5038259;28;20102;-83
2021/12/26 02:58:57;;;;;;;0.20;0.20;;;;;;;;;;5036661;28;20585;-84
2021/12/26 03:01:25;;;;;;;0.20;0.20;;;;;;;;;;5028188;28;20052;-84
2021/12/26 03:03:51;;;;;;;0.20;0.20;;;;;;;;;;5019418;28;20037;-86
2021/12/26 03:06:25;;;;;;;0.20;0.20;;;;;;;;;;5040764;28;20025;-86
2021/12/26 03:08:54;;;;;;;0.30;0.30;;;;;;;;;;5023610;28;20146;-86
2021/12/26 03:11:20;;;;;;;0.20;0.20;;;;;;;;;;5022394;28;20040;-84
2021/12/26 03:13:46;;;;;;;0.20;0.20;;;;;;;;;;5020168;28;20035;-85
2021/12/26 03:16:12;;;;;;;0.20;0.20;;;;;;;;;;5038542;28;20508;-85
2021/12/26 03:18:38;;;;;;;0.20;0.20;;;;;;;;;;5036719;28;20123;-85
2021/12/26 03:21:04;;;;;;;0.20;0.20;;;;;;;;;;5032256;28;20153;-85
2021/12/26 03:23:30;;;;;;;0.20;0.20;;;;;;;;;;5011922;28;20033;-85
2021/12/26 03:25:57;;;;;;;0.30;0.30;;;;;;;;;;5042619;28;20390;-85
2021/12/26 03:28:23;;;;;;;0.20;0.20;;;;;;;;;;5039706;28;20747;-86
2021/12/26 03:30:51;;;;;;;0.20;0.20;;;;;;;;;;5037784;28;20119;-85
2021/12/26 03:33:17;;;;;;;0.20;0.20;;;;;;;;;;5033137;28;20032;-85
2021/12/26 03:35:43;;;;;;;0.20;0.20;;;;;;;;;;5042309;28;20029;-85
2021/12/26 03:38:10;;;;;;;0.20;0.20;;;;;;;;;;5031771;28;20038;-85
2021/12/26 03:40:37;;;;;;;0.20;0.20;;;;;;;;;;5034773;28;20190;-83
2021/12/26 03:43:03;;;;;;;0.20;0.20;;;;;;;;;;5040304;28;20028;-85
2021/12/26 03:45:29;;;;;;;0.20;0.20;;;;;;;;;;5025466;28;20491;-85
2021/12/26 03:47:55;;;;;;;0.30;0.30;;;;;;;;;;5032461;28;20114;-84
2021/12/26 03:50:22;;;;;;;0.30;0.30;;;;;;;;;;5043967;28;20834;-84
2021/12/26 03:52:51;;;;;;;;;;;;;;;;;;5032702;28;20036;-84
2021/12/26 03:55:21;;;;;;;0.20;0.20;;;;;;;;;;5042493;28;19916;-83
2021/12/26 03:57:47;;;;;;;0.20;0.20;;;;;;;;;;5041358;28;20064;-83
2021/12/26 04:00:14;;;;;;;0.20;0.20;;;;;;;;;;5040468;28;20025;-84
2021/12/26 04:02:41;;;;;;;0.20;0.20;;;;;;;;;;5041767;28;20021;-85
2021/12/26 04:05:07;;;;;;;;;;;;;;;;;;5039427;28;20028;-86
2021/12/26 04:07:33;;;;;;;0.20;0.20;;;;;;;;;;5041484;28;20295;-85
2021/12/26 04:09:59;;;;;;;0.20;0.20;;;;;;;;;;5041617;28;20507;-85
2021/12/26 04:12:25;;;;;;;0.20;0.20;;;;;;;;;;5040680;28;20052;-85
2021/12/26 04:14:51;;;;;;;0.20;0.20;;;;;;;;;;5022760;28;20031;-85
2021/12/26 04:17:17;;;;;;;0.20;0.20;;;;;;;;;;5041444;28;20033;-80
2021/12/26 04:19:43;;;;;;;0.20;0.20;;;;;;;;;;5040082;28;20037;-81
2021/12/26 04:22:10;;;;;;;0.20;0.20;;;;;;;;;;5040600;28;20037;-81
2021/12/26 04:24:36;;;;;;;0.20;0.20;;;;;;;;;;5040376;28;20039;-82
2021/12/26 04:27:02;;;;;;;0.20;0.20;;;;;;;;;;5040552;28;20032;-82
2021/12/26 04:29:28;;;;;;;0.20;0.20;;;;;;;;;;5039890;28;20029;-82
2021/12/26 04:31:54;;;;;;;0.20;0.20;;;;;;;;;;5041376;28;20040;-82
2021/12/26 04:34:20;;;;;;;0.20;0.20;;;;;;;;;;5039656;28;20029;-81
2021/12/26 04:36:46;;;;;;;0.20;0.20;;;;;;;;;;5021163;28;20037;-81
2021/12/26 04:39:12;;;;;;;0.20;0.20;;;;;;;;;;5041312;28;20036;-81
2021/12/26 04:41:38;;;;;;;0.20;0.20;;;;;;;;;;5040261;28;20036;-81
2021/12/26 04:44:04;;;;;;;0.20;0.20;;;;;;;;;;5040394;28;20055;-82
2021/12/26 04:46:30;;;;;;;0.30;0.30;;;;;;;;;;5040330;28;20025;-82
2021/12/26 04:48:56;;;;;;;0.20;0.20;;;;;;;;;;5039208;28;20024;-81
2021/12/26 04:51:22;;;;;;;0.20;0.20;;;;;;;;;;5040549;28;20082;-83
2021/12/26 04:53:48;;;;;;;0.20;0.20;;;;;;;;;;5039432;28;20116;-83
2021/12/26 04:56:14;;;;;;;0.20;0.20;;;;;;;;;;5039755;28;20037;-83
2021/12/26 04:58:40;;;;;;;0.20;0.20;;;;;;;;;;5040659;28;20055;-85
2021/12/26 05:01:06;;;;;;;0.22;0.22;;;;;;;;;;5040332;28;20035;-84
2021/12/26 05:03:32;;;;;;;0.20;0.20;;;;;;;;;;5039675;28;20036;-84
2021/12/26 05:05:58;;;;;;;0.20;0.20;;;;;;;;;;5040271;28;20041;-84
2021/12/26 05:08:24;;;;;;;0.20;0.20;;;;;;;;;;5038935;28;20290;-83
2021/12/26 05:10:51;;;;;;;0.20;0.20;;;;;;;;;;5040712;28;20455;-82
2021/12/26 05:13:17;;;;;;;0.20;0.20;;;;;;;;;;5040135;28;20036;-82
2021/12/26 05:15:43;;;;;;;0.20;0.20;;;;;;;;;;5040254;28;20044;-83
2021/12/26 05:18:10;;;;;;;0.20;0.20;;;;;;;;;;5037158;28;20470;-84
2021/12/26 05:20:36;;;;;;;0.20;0.20;;;;;;;;;;5039850;28;20108;-83
2021/12/26 05:23:04;;;;;;;0.30;0.30;;;;;;;;;;5020822;28;20032;-83
2021/12/26 05:25:30;;;;;;;0.20;0.20;;;;;;;;;;5040753;28;20104;-83
2021/12/26 05:27:57;;;;;;;0.20;0.20;;;;;;;;;;5037926;28;20670;-83
2021/12/26 05:30:23;;;;;;;0.20;0.20;;;;;;;;;;5039576;28;20036;-83
2021/12/26 05:32:50;;;;;;;0.20;0.20;;;;;;;;;;5038563;28;20768;-83
2021/12/26 05:35:16;;;;;;;0.25;0.25;;;;;;;;;;5039427;28;20044;-83
2021/12/26 05:37:42;;;;;;;0.20;0.20;;;;;;;;;;5040018;28;20579;-83
2021/12/26 05:40:10;;;;;;;0.30;0.30;;;;;;;;;;5038787;28;20037;-83
2021/12/26 05:42:37;;;;;;;0.20;0.20;;;;;;;;;;5038503;28;20036;-83
2021/12/26 05:45:03;;;;;;;0.28;0.28;;;;;;;;;;5039105;28;20132;-83
2021/12/26 05:47:31;;;;;;;0.20;0.20;;;;;;;;;;5020238;28;20504;-84
2021/12/26 05:49:57;;;;;;;0.20;0.20;;;;;;;;;;5039556;28;20025;-83
2021/12/26 05:52:23;;;;;;;0.20;0.20;;;;;;;;;;5039274;28;20045;-85
2021/12/26 05:54:50;;;;;;;0.30;0.30;;;;;;;;;;5037201;28;20032;-84
2021/12/26 05:57:16;;;;;;;0.30;0.30;;;;;;;;;;5029918;28;20597;-84
2021/12/26 05:59:42;;;;;;;0.30;0.30;;;;;;;;;;5038641;28;20037;-84
2021/12/26 06:02:08;;;;;;;0.20;0.20;;;;;;;;;;5038210;28;20045;-84
2021/12/26 06:04:34;;;;;;;0.30;0.30;;;;;;;;;;5040198;28;20036;-84
2021/12/26 06:07:00;;;;;;;0.30;0.30;;;;;;;;;;5038801;28;20036;-85
2021/12/26 06:09:26;;;;;;;0.20;0.20;;;;;;;;;;5038293;28;20033;-86
2021/12/26 06:11:52;;;;;;;0.20;0.20;;;;;;;;;;5025951;28;20303;-85
2021/12/26 06:14:18;;;;;;;0.30;0.30;;;;;;;;;;5039154;28;20040;-86
2021/12/26 06:16:45;;;;;;;0.20;0.20;;;;;;;;;;5039263;28;20061;-83
2021/12/26 06:19:11;;;;;;;0.20;0.20;;;;;;;;;;5038632;28;20063;-85
2021/12/26 06:21:37;;;;;;;0.30;0.30;;;;;;;;;;5037766;28;20291;-84
2021/12/26 06:24:03;;;;;;;0.20;0.20;;;;;;;;;;5037849;28;20032;-83
2021/12/26 06:26:29;;;;;;;0.20;0.20;;;;;;;;;;5039217;28;20021;-82
2021/12/26 06:28:55;;;;;;;0.20;0.20;;;;;;;;;;5039499;28;20267;-81
2021/12/26 06:31:21;;;;;;;0.20;0.20;;;;;;;;;;5039625;28;20508;-82
2021/12/26 06:33:48;;;;;;;0.30;0.30;;;;;;;;;;5029521;28;20044;-83
2021/12/26 06:36:14;;;;;;;0.20;0.20;;;;;;;;;;5039634;28;20758;-84
2021/12/26 06:38:42;;;;;;;0.30;0.30;;;;;;;;;;5039316;28;20910;-83
2021/12/26 06:41:08;;;;;;;0.28;0.28;;;;;;;;;;5039324;28;20033;-82
2021/12/26 06:43:35;;;;;;;0.20;0.20;;;;;;;;;;5039107;28;20052;-83
2021/12/26 06:46:01;;;;;;;;;;;;;;;;;;5038559;28;20290;-85
2021/12/26 06:48:27;;;;;;;0.20;0.20;;;;;;;;;;5038511;28;19917;-85
2021/12/26 06:50:53;;;;;;;0.30;0.30;;;;;;;;;;5041923;28;20033;-85
2021/12/26 06:53:20;;;;;;;0.30;0.30;;;;;;;;;;5045354;28;20655;-85
2021/12/26 06:55:46;;;;;;;0.20;0.20;;;;;;;;;;5040972;28;20040;-86
2021/12/26 06:58:13;;;;;;;0.30;0.30;;;;;;;;;;5043402;28;20075;-86
2021/12/26 07:00:40;;;;;;;0.30;0.30;;;;;;;;;;5042118;28;20044;-85
2021/12/26 07:03:06;;;;;;;0.20;0.20;;;;;;;;;;5042247;28;20036;-86
2021/12/26 07:05:32;;;;;;;0.20;0.20;;;;;;;;;;5024916;28;20029;-85
2021/12/26 07:07:58;;;;;;;0.22;0.22;;;;;;;;;;5043300;28;20541;-84
2021/12/26 07:10:24;;;;;;;0.30;0.30;;;;;;;;;;5045148;28;20029;-86
2021/12/26 07:12:50;;;;;;;0.20;0.20;;;;;;;;;;5041894;28;20045;-85
2021/12/26 07:15:17;;;;;;;0.20;0.20;;;;;;;;;;5039305;28;20143;-80
2021/12/26 07:17:43;;;;;;;0.30;0.30;;;;;;;;;;5040778;28;20025;-81
2021/12/26 07:20:11;;;;;;;0.30;0.30;;;;;;;;;;5042327;28;20026;-81
2021/12/26 07:22:38;;;;;;;0.32;0.32;;;;;;;;;;5020289;28;20823;-81
2021/12/26 07:25:05;;;;;;;0.20;0.20;;;;;;;;;;5042653;28;20028;-81
2021/12/26 07:27:30;;;;;;;;;;;;;;;;;;5042101;28;20025;-82
2021/12/26 07:29:58;;;;;;;0.20;0.20;;;;;;;;;;5040170;28;20125;-82
2021/12/26 07:32:25;;;;;;;0.20;0.20;;;;;;;;;;5039344;28;20037;-83
2021/12/26 07:34:51;;;;;;;0.30;0.30;;;;;;;;;;5042201;28;20098;-83
2021/12/26 07:37:17;;;;;;;0.20;0.20;;;;;;;;;;5042738;28;20037;-79
2021/12/26 07:39:43;;;;;;;0.20;0.20;;;;;;;;;;5039517;28;20052;-81
2021/12/26 07:42:09;;;;;;;0.20;0.20;;;;;;;;;;5040484;28;20029;-81
2021/12/26 07:44:36;;;;;;;0.30;0.30;;;;;;;;;;5032117;28;20127;-81
2021/12/26 07:47:02;;;;;;;0.22;0.22;;;;;;;;;;5028883;28;21093;-80
2021/12/26 07:49:28;;;;;;;0.20;0.20;;;;;;;;;;5040874;28;20028;-80
2021/12/26 07:51:56;;;;;;;0.20;0.20;;;;;;;;;;5035755;28;20056;-80
2021/12/26 07:54:23;;;;;;;0.30;0.30;;;;;;;;;;5037562;28;20041;-81
2021/12/26 07:56:49;;;;;;;0.30;0.30;;;;;;;;;;5040524;28;20020;-81
2021/12/26 07:59:16;;;;;;;0.22;0.22;;;;;;;;;;5043145;28;20032;-82
2021/12/26 08:01:42;;;;;;;0.20;0.20;;;;;;;;;;5041372;28;20091;-78
2021/12/26 08:04:11;;;;;;;0.30;0.30;;;;;;;;;;5039856;28;20170;-81
2021/12/26 08:06:37;;;;;;;0.20;0.20;;;;;;;;;;5043380;28;20287;-81
2021/12/26 08:09:04;;;;;;;0.20;0.20;;;;;;;;;;5044628;28;20033;-81
2021/12/26 08:11:31;;;;;;;0.30;0.30;;;;;;;;;;5024910;28;20029;-82
2021/12/26 08:13:57;;;;;;;;;;;;;;;;;;5045160;28;20360;-81
2021/12/26 08:16:23;;;;;;;0.30;0.30;;;;;;;;;;5039967;28;19923;-81
2021/12/26 08:18:49;;;;;;;0.30;0.30;;;;;;;;;;5042390;28;20373;-81
2021/12/26 08:21:15;;;;;;;0.20;0.20;;;;;;;;;;5043113;28;20033;-78
2021/12/26 08:23:41;;;;;;;0.30;0.30;;;;;;;;;;5040071;28;20033;-81
2021/12/26 08:26:07;;;;;;;0.30;0.30;;;;;;;;;;5041542;28;20128;-81
2021/12/26 08:28:33;;;;;;;0.20;0.20;;;;;;;;;;5041382;28;20600;-83
2021/12/26 08:31:00;;;;;;;0.30;0.30;;;;;;;;;;5040658;28;20203;-82
2021/12/26 08:33:26;;;;;;;0.20;0.20;;;;;;;;;;5037948;28;20036;-81
2021/12/26 08:35:52;;;;;;;0.20;0.20;;;;;;;;;;5040891;28;20099;-81
2021/12/26 08:38:21;;;;;;;0.30;0.30;;;;;;;;;;5022721;28;20111;-82
2021/12/26 08:40:51;;;;;;;0.30;0.30;;;;;;;;;;5028540;28;20880;-86
2021/12/26 08:43:17;;;;;;;0.20;0.20;;;;;;;;;;5040876;28;20044;-82
2021/12/26 08:45:43;;;;;;;0.30;0.30;;;;;;;;;;5038758;28;20044;-84
2021/12/26 08:48:09;;;;;;;0.30;0.30;;;;;;;;;;5040396;28;20786;-81
2021/12/26 08:50:36;;;;;;;0.30;0.30;;;;;;;;;;5038835;28;20796;-81
2021/12/26 08:53:02;;;;;;;0.20;0.20;;;;;;;;;;5039303;28;20044;-81
2021/12/26 08:55:28;;;;;;;0.30;0.30;;;;;;;;;;5041412;28;20029;-81
2021/12/26 08:57:55;;;;;;;0.30;0.30;;;;;;;;;;5036976;28;20043;-80
2021/12/26 09:00:22;;;;;;;0.30;0.30;;;;;;;;;;5042324;28;20024;-81
2021/12/26 09:02:48;;;;;;;;;;;;;;;;;;5041321;28;20111;-81
2021/12/26 09:05:14;;;;;;;0.30;0.30;;;;;;;;;;5042430;28;20035;-81
2021/12/26 09:08:07;;;;;;;0.30;0.30;;;;;;;;;;5038664;28;20411;-78
2021/12/26 09:10:33;;;;;;;0.20;0.20;;;;;;;;;;5041123;28;20354;-85
2021/12/26 09:12:59;;;;;;;0.30;0.30;;;;;;;;;;5041983;28;20582;-85
2021/12/26 09:15:25;;;;;;;0.30;0.30;;;;;;;;;;5042332;28;20036;-85
2021/12/26 09:17:52;;;;;;;0.30;0.30;;;;;;;;;;5042471;28;20033;-86
2021/12/26 09:20:19;;;;;;;0.30;0.30;;;;;;;;;;5040043;28;20403;-85
2021/12/26 09:22:45;;;;;;;0.20;0.20;;;;;;;;;;5043404;28;20040;-85
2021/12/26 09:25:11;;;;;;;0.30;0.30;;;;;;;;;;5026931;28;20040;-86
2021/12/26 09:27:37;;;;;;;0.20;0.20;;;;;;;;;;5042566;28;20033;-85
2021/12/26 09:30:06;;;;;;;0.30;0.30;;;;;;;;;;5039994;28;20075;-86
2021/12/26 09:32:32;;;;;;;0.30;0.30;;;;;;;;;;5042387;28;20033;-85
2021/12/26 09:34:58;;;;;;;0.30;0.30;;;;;;;;;;5042513;28;20025;-85
2021/12/26 09:37:24;;;;;;;0.30;0.30;;;;;;;;;;5042657;28;20031;-85
2021/12/26 09:39:52;;;;;;;0.30;0.30;;;;;;;;;;5041656;28;20028;-85
2021/12/26 09:42:19;;;;;;;0.30;0.30;;;;;;;;;;5041724;28;20123;-85
2021/12/26 09:44:45;;;;;;;0.30;0.30;;;;;;;;;;5042125;28;20059;-86
2021/12/26 09:47:12;;;;;;;0.20;0.20;;;;;;;;;;5041564;28;20160;-86
2021/12/26 09:49:38;;;;;;;0.30;0.30;;;;;;;;;;5042426;28;20704;-86
2021/12/26 09:52:04;;;;;;;0.30;0.30;;;;;;;;;;5040469;28;20302;-87
2021/12/26 09:54:31;;;;;;;0.30;0.30;;;;;;;;;;5041686;28;20191;-88
2021/12/26 09:56:57;;;;;;;0.20;0.20;;;;;;;;;;5041723;28;20117;-87
2021/12/26 09:59:23;;;;;;;0.30;0.30;;;;;;;;;;5042209;28;20032;-86
2021/12/26 10:01:54;;;;;;;0.20;0.20;;;;;;;;;;5042616;28;20029;-86
2021/12/26 10:04:20;;;;;;;0.30;0.30;;;;;;;;;;5041870;28;20025;-87
2021/12/26 10:06:47;;;;;;;0.30;0.30;;;;;;;;;;5042234;28;20166;-87
2021/12/26 10:09:14;;;;;;;0.30;0.30;;;;;;;;;;5042045;28;20075;-87
2021/12/26 10:11:41;;;;;;;0.30;0.30;;;;;;;;;;5041931;28;20041;-86
2021/12/26 10:14:09;;;;;;;0.30;0.30;;;;;;;;;;5041156;28;20511;-87
2021/12/26 10:16:45;;;;;;;0.30;0.30;;;;;;;;;;5029361;28;20112;-85
2021/12/26 10:19:12;;;;;;;0.30;0.30;;;;;;;;;;5043282;28;20037;-85
2021/12/26 10:21:38;;;;;;;0.20;0.20;;;;;;;;;;5038697;28;20427;-86
2021/12/26 10:24:11;;;;;;;0.30;0.30;;;;;;;;;;5024879;28;20114;-86
2021/12/26 10:26:39;;;;;;;0.30;0.30;;;;;;;;;;5044858;28;20577;-86
2021/12/26 10:29:11;;;;;;;0.30;0.30;;;;;;;;;;5045072;28;20056;-86
2021/12/26 10:31:39;;;;;;;0.30;0.30;;;;;;;;;;5032862;28;20046;-86
2021/12/26 10:34:05;;;;;;;0.30;0.30;;;;;;;;;;5044401;28;20020;-85
2021/12/26 10:36:31;;;;;;;0.20;0.20;;;;;;;;;;5045109;28;20043;-84
2021/12/26 10:39:09;;;;;;;0.30;0.30;;;;;;;;;;5041898;28;20036;-85
2021/12/26 10:41:50;;;;;;;0.20;0.20;;;;;;;;;;5039835;28;20041;-88
2021/12/26 10:44:39;;;;;;;0.30;0.30;;;;;;;;;;5043452;28;20041;-84
2021/12/26 10:47:10;;;;;;;0.30;0.30;;;;;;;;;;5037726;28;20546;-84
2021/12/26 10:49:38;;;;;;;0.30;0.30;;;;;;;;;;5046735;28;20031;-83
2021/12/26 10:52:09;;;;;;;0.20;0.20;;;;;;;;;;5044887;28;20071;-84
2021/12/26 10:54:35;;;;;;;0.20;0.20;;;;;;;;;;5045447;28;20025;-82
2021/12/26 10:57:13;;;;;;;0.25;0.25;;;;;;;;;;5044613;28;20041;-82
2021/12/26 10:59:40;;;;;;;0.30;0.30;;;;;;;;;;5035621;28;20039;-81
2021/12/26 11:02:06;;;;;;;;;;;;;;;;;;5043825;28;20416;-83
2021/12/26 11:04:32;;;;;;;0.30;0.30;;;;;;;;;;5045483;28;19920;-88
2021/12/26 11:07:08;;;;;;;0.30;0.30;;;;;;;;;;5042186;28;20086;-88
2021/12/26 11:09:35;;;;;;;0.30;0.30;;;;;;;;;;5044511;28;20025;-88
2021/12/26 11:12:06;;;;;;;0.30;0.30;;;;;;;;;;5042400;28;20492;-88
2021/12/26 11:14:33;;;;;;;0.30;0.30;;;;;;;;;;5045739;28;20032;-87
2021/12/26 11:16:59;;;;;;;0.30;0.30;;;;;;;;;;5043690;28;20036;-88
2021/12/26 11:19:44;;;;;;;0.30;0.30;;;;;;;;;;5042454;28;20086;-89
2021/12/26 11:22:10;;;;;;;0.30;0.30;;;;;;;;;;5027929;28;20032;-89
2021/12/26 11:24:37;;;;;;;0.30;0.30;;;;;;;;;;5039352;28;20029;-89
2021/12/26 11:27:04;;;;;;;0.30;0.30;;;;;;;;;;5043482;28;20044;-89
2021/12/26 11:29:31;;;;;;;0.30;0.30;;;;;;;;;;5041519;28;20028;-88
2021/12/26 11:31:57;;;;;;;0.30;0.30;;;;;;;;;;5045030;28;20045;-88
2021/12/26 11:34:23;;;;;;;0.22;0.22;;;;;;;;;;5042245;28;20263;-88
2021/12/26 11:36:50;;;;;;;0.20;0.20;;;;;;;;;;5034873;28;20040;-87
2021/12/26 11:39:17;;;;;;;0.28;0.28;;;;;;;;;;5037471;28;20022;-84
2021/12/26 11:42:15;;;;;;;0.30;0.30;;;;;;;;;;5037096;28;20111;-85
2021/12/26 11:45:02;;;;;;;0.30;0.30;;;;;;;;;;5036681;28;20045;-84
2021/12/26 11:47:28;;;;;;;;;;;;;;;;;;5037156;28;20040;-86
2021/12/26 11:50:04;;;;;;;0.30;0.30;;;;;;;;;;5035895;28;20316;-85
2021/12/26 11:52:54;;;;;;;0.30;0.30;;;;;;;;;;5041427;28;20053;-84
2021/12/26 11:55:29;;;;;;;0.30;0.30;;;;;;;;;;5027490;28;20108;-85
2021/12/26 11:58:14;;;;;;;0.30;0.30;;;;;;;;;;5033039;28;20033;-83
2021/12/26 12:00:41;;;;;;;0.20;0.20;;;;;;;;;;5029238;28;20052;-85
2021/12/26 12:03:18;;;;;;;0.30;0.30;;;;;;;;;;5032675;28;20876;-84
2021/12/26 12:05:44;;;;;;;0.30;0.30;;;;;;;;;;5034081;28;20408;-84
2021/12/26 12:08:11;;;;;;;0.25;0.25;;;;;;;;;;5031771;28;20083;-84
2021/12/26 12:10:37;;;;;;;0.30;0.30;;;;;;;;;;5027343;28;20810;-84
2021/12/26 12:13:06;;;;;;;0.20;0.20;;;;;;;;;;5024758;28;20056;-84
2021/12/26 12:15:43;;;;;;;0.30;0.30;;;;;;;;;;5025894;28;20048;-84
2021/12/26 12:18:12;;;;;;;0.30;0.30;;;;;;;;;;5035327;28;20034;-85
2021/12/26 12:20:39;;;;;;;0.30;0.30;;;;;;;;;;5037873;28;20026;-84
2021/12/26 12:23:07;;;;;;;0.30;0.30;;;;;;;;;;5041566;28;20115;-84
2021/12/26 12:25:36;;;;;;;0.30;0.30;;;;;;;;;;5020316;28;20234;-83
2021/12/26 12:28:21;;;;;;;0.30;0.30;;;;;;;;;;5036799;28;20585;-83
2021/12/26 12:30:50;;;;;;;0.30;0.30;;;;;;;;;;5036745;28;20037;-83
2021/12/26 12:33:21;;;;;;;0.30;0.30;;;;;;;;;;5035198;28;20460;-83
2021/12/26 12:35:58;;;;;;;0.20;0.20;;;;;;;;;;5039203;28;20032;-82
2021/12/26 12:38:40;;;;;;;0.30;0.30;;;;;;;;;;5037868;28;20033;-82
2021/12/26 12:41:09;;;;;;;0.20;0.20;;;;;;;;;;5037428;28;20472;-82
2021/12/26 12:43:46;;;;;;;0.28;0.28;;;;;;;;;;5027053;28;20056;-83
2021/12/26 12:46:13;;;;;;;0.22;0.22;;;;;;;;;;5030634;28;20037;-83
2021/12/26 12:48:40;;;;;;;0.20;0.20;;;;;;;;;;5031758;28;20104;-84
2021/12/26 12:51:16;;;;;;;0.20;0.20;;;;;;;;;;5033998;28;20119;-83
2021/12/26 12:53:55;;;;;;;0.20;0.20;;;;;;;;;;5040048;28;20053;-83
2021/12/26 12:56:24;;;;;;;0.22;0.22;;;;;;;;;;5031743;28;20032;-85
2021/12/26 12:58:50;;;;;;;0.20;0.20;;;;;;;;;;5039876;28;20119;-84
2021/12/26 13:01:34;;;;;;;0.30;0.30;;;;;;;;;;5039780;28;20638;-85
2021/12/26 13:04:00;;;;;;;0.28;0.28;;;;;;;;;;5029784;28;20064;-84
2021/12/26 13:06:26;;;;;;;0.20;0.20;;;;;;;;;;5038342;28;20025;-85
2021/12/26 13:08:52;;;;;;;0.20;0.20;;;;;;;;;;5031398;28;20032;-84
2021/12/26 13:11:18;;;;;;;0.30;0.30;;;;;;;;;;5040485;28;20037;-85
2021/12/26 13:13:44;;;;;;;0.20;0.20;;;;;;;;;;5036499;28;20318;-84
2021/12/26 13:16:10;;;;;;;0.30;0.30;;;;;;;;;;5034531;28;20333;-85
2021/12/26 13:18:40;;;;;;;0.30;0.30;;;;;;;;;;5033707;28;20033;-84
2021/12/26 13:21:07;;;;;;;0.20;0.20;;;;;;;;;;5039424;28;20071;-84
2021/12/26 13:23:34;;;;;;;0.22;0.22;;;;;;;;;;5042431;28;20025;-85
2021/12/26 13:26:00;;;;;;;;;;;;;;;;;;5042917;28;20036;-85
2021/12/26 13:28:27;;;;;;;0.20;0.20;;;;;;;;;;5035661;28;20311;-85
2021/12/26 13:30:55;;;;;;;0.10;0.10;;;;;;;;;;5022525;28;20037;-86
2021/12/26 13:33:23;;;;;;;0.10;0.10;;;;;;;;;;5037774;28;20805;-83
2021/12/26 13:35:49;;;;;;;0.10;0.10;;;;;;;;;;5041781;28;20072;-84
2021/12/26 13:38:16;;;;;;;0.30;0.30;;;;;;;;;;5041639;28;20033;-84
2021/12/26 13:40:50;;;;;;;0.20;0.20;;;;;;;;;;5037205;28;20033;-83
2021/12/26 13:43:26;;;;;;;0.30;0.30;;;;;;;;;;5036225;28;20025;-84
2021/12/26 13:45:53;;;;;;;0.30;0.30;;;;;;;;;;5035435;28;20579;-84
2021/12/26 13:48:27;;;;;;;0.30;0.30;;;;;;;;;;5036691;28;20051;-84
2021/12/26 13:50:53;;;;;;;0.30;0.30;;;;;;;;;;5039011;28;20880;-84
2021/12/26 13:53:19;;;;;;;0.30;0.30;;;;;;;;;;5039072;28;20052;-84
2021/12/26 13:55:52;;;;;;;0.30;0.30;;;;;;;;;;5042121;28;20025;-85
2021/12/26 13:58:18;;;;;;;0.30;0.30;;;;;;;;;;5040228;28;20145;-84
2021/12/26 14:00:49;;;;;;;0.30;0.30;;;;;;;;;;5040747;28;20519;-84
2021/12/26 14:03:15;;;;;;;0.30;0.30;;;;;;;;;;5040031;28;20114;-84
2021/12/26 14:05:41;;;;;;;0.30;0.30;;;;;;;;;;5038507;28;20798;-85
2021/12/26 14:08:17;;;;;;;0.30;0.30;;;;;;;;;;5040953;28;20043;-85
2021/12/26 14:10:44;;;;;;;0.30;0.30;;;;;;;;;;5038833;28;20025;-84
2021/12/26 14:13:11;;;;;;;0.30;0.30;;;;;;;;;;5037825;28;20068;-84
2021/12/26 14:15:45;;;;;;;0.40;0.40;;;;;;;;;;5040067;28;20021;-83
2021/12/26 14:18:18;;;;;;;0.30;0.30;;;;;;;;;;5041956;28;20033;-84
2021/12/26 14:20:53;;;;;;;0.30;0.30;;;;;;;;;;5040583;28;20029;-85
2021/12/26 14:23:23;;;;;;;0.30;0.30;;;;;;;;;;5038742;28;20389;-84
2021/12/26 14:25:51;;;;;;;0.30;0.30;;;;;;;;;;5036866;28;20495;-84
2021/12/26 14:28:19;;;;;;;0.30;0.30;;;;;;;;;;5038002;28;20025;-85
2021/12/26 14:30:46;;;;;;;0.30;0.30;;;;;;;;;;5039786;28;20037;-83
2021/12/26 14:33:13;;;;;;;0.30;0.30;;;;;;;;;;5040652;28;20127;-84
2021/12/26 14:35:39;;;;;;;;;;;;;;;;;;5041258;28;20033;-85
2021/12/26 14:38:06;;;;;;;0.40;0.40;;;;;;;;;;5039598;28;20855;-83
2021/12/26 14:40:32;;;;;;;0.40;0.40;;;;;;;;;;5038426;28;20029;-83
2021/12/26 14:42:58;;;;;;;0.40;0.40;;;;;;;;;;5037604;28;20036;-83
2021/12/26 14:45:24;;;;;;;0.30;0.30;;;;;;;;;;5038059;28;20045;-82
2021/12/26 14:47:50;;;;;;;0.30;0.30;;;;;;;;;;5037736;28;20543;-83
2021/12/26 14:50:23;;;;;;;0.40;0.40;;;;;;;;;;5042178;28;20959;-83
2021/12/26 14:52:51;;;;;;;0.30;0.30;;;;;;;;;;5039100;28;20123;-83
2021/12/26 14:55:18;;;;;;;0.30;0.30;;;;;;;;;;5030664;28;20132;-83
2021/12/26 14:57:44;;;;;;;0.30;0.30;;;;;;;;;;5034368;28;20408;-83